createdAt,value
2017-11-19T00:03:29.620Z,100062.59
2017-11-19T00:05:58.857Z,100060.14
2017-11-19T00:08:28.839Z,100070.63
2017-11-19T00:10:58.037Z,100046.00
2017-11-19T00:13:27.212Z,100044.59
2017-11-19T00:15:56.414Z,100053.98
2017-11-19T00:18:25.580Z,100065.58
2017-11-19T00:20:55.545Z,100068.54
2017-11-19T00:23:25.165Z,100056.02
2017-11-19T00:25:54.351Z,100062.62
2017-11-19T00:28:23.536Z,100062.98
2017-11-19T00:30:52.721Z,100042.84
2017-11-19T00:33:21.886Z,100041.81
2017-11-19T00:35:51.841Z,100039.91
2017-11-19T00:38:21.044Z,100053.38
2017-11-19T00:40:50.303Z,100050.78
2017-11-19T00:43:20.197Z,100049.89
2017-11-19T00:45:49.369Z,100038.48
2017-11-19T00:48:18.509Z,100042.03
2017-11-19T00:50:47.720Z,100052.53
2017-11-19T00:53:17.028Z,100047.91
2017-11-19T00:55:46.227Z,100047.49
2017-11-19T00:58:15.395Z,100043.23
2017-11-19T01:00:44.575Z,100041.95
2017-11-19T01:03:14.538Z,100039.03
2017-11-19T01:05:43.755Z,100033.78
2017-11-19T01:08:12.982Z,100030.21
2017-11-19T01:10:45.076Z,100031.08
2017-11-19T01:13:15.336Z,100037.84
2017-11-19T01:15:44.554Z,100034.80
2017-11-19T01:18:13.743Z,100027.37
2017-11-19T01:20:42.968Z,100032.84
2017-11-19T01:23:12.928Z,100032.14
2017-11-19T01:25:42.104Z,100022.82
2017-11-19T01:28:11.316Z,100023.92
2017-11-19T01:30:40.496Z,100019.94
2017-11-19T01:33:09.706Z,100020.34
2017-11-19T01:35:38.889Z,100016.06
2017-11-19T01:38:08.076Z,100014.78
2017-11-19T01:40:37.296Z,100013.45
2017-11-19T01:43:06.491Z,100010.30
2017-11-19T01:45:35.688Z,100010.20
2017-11-19T01:48:04.886Z,100009.66
2017-11-19T01:50:34.061Z,100011.89
2017-11-19T01:53:03.318Z,100010.84
2017-11-19T01:55:32.511Z,100007.75
2017-11-19T01:58:01.700Z,100008.16
2017-11-19T02:00:30.970Z,100014.98
2017-11-19T02:03:00.182Z,100017.41
2017-11-19T02:05:29.381Z,100012.67
2017-11-19T02:07:58.652Z,100012.63
2017-11-19T02:10:27.823Z,100012.25
2017-11-19T02:12:57.017Z,100005.00
2017-11-19T02:15:27.689Z,100012.61
2017-11-19T02:17:56.887Z,100006.99
2017-11-19T02:20:26.067Z,100007.98
2017-11-19T02:22:56.005Z,100012.12
2017-11-19T02:25:25.297Z,100014.22
2017-11-19T02:27:54.476Z,100011.35
2017-11-19T02:30:23.855Z,100011.50
2017-11-19T02:32:53.021Z,100010.17
2017-11-19T02:35:22.214Z,100007.61
2017-11-19T02:37:51.384Z,100013.34
2017-11-19T02:40:20.680Z,100013.45
2017-11-19T02:42:49.912Z,100006.82
2017-11-19T02:45:19.088Z,100006.39
2017-11-19T02:47:48.288Z,100012.63
2017-11-19T02:50:17.444Z,100015.02
2017-11-19T02:52:46.639Z,100016.72
2017-11-19T02:55:16.701Z,100023.92
2017-11-19T02:57:45.887Z,100028.33
2017-11-19T03:00:15.075Z,100022.44
2017-11-19T03:02:44.266Z,100019.66
2017-11-19T03:05:13.449Z,100028.39
2017-11-19T03:07:43.414Z,100031.23
2017-11-19T03:10:12.689Z,100035.92
2017-11-19T03:12:41.982Z,100036.22
2017-11-19T03:15:11.506Z,100030.94
2017-11-19T03:17:40.658Z,100034.22
2017-11-19T03:20:10.621Z,100035.04
2017-11-19T03:22:39.784Z,100032.48
2017-11-19T03:25:09.085Z,100033.59
2017-11-19T03:27:38.264Z,100029.59
2017-11-19T03:30:08.248Z,100032.23
2017-11-19T03:32:37.420Z,100026.60
2017-11-19T03:35:06.664Z,100019.47
2017-11-19T03:37:35.849Z,100025.06
2017-11-19T03:40:05.021Z,100016.75
2017-11-19T03:42:34.212Z,100015.00
2017-11-19T03:45:03.396Z,100021.64
2017-11-19T03:47:32.607Z,100023.87
2017-11-19T03:50:01.801Z,100018.54
2017-11-19T03:52:30.979Z,100027.02
2017-11-19T03:55:00.166Z,100013.34
2017-11-19T03:57:29.366Z,100011.32
2017-11-19T03:59:58.546Z,100010.72
2017-11-19T04:02:28.727Z,100014.23
2017-11-19T04:04:57.898Z,100018.23
2017-11-19T04:07:27.174Z,100012.02
2017-11-19T04:09:57.133Z,100019.48
2017-11-19T04:12:26.307Z,100023.26
2017-11-19T04:14:55.546Z,100027.41
2017-11-19T04:17:24.941Z,100030.39
2017-11-19T04:19:54.170Z,100032.25
2017-11-19T04:22:24.119Z,100038.16
2017-11-19T04:24:53.544Z,100033.78
2017-11-19T04:27:22.718Z,100032.73
2017-11-19T04:29:51.930Z,100030.50
2017-11-19T04:32:21.102Z,100037.11
2017-11-19T04:34:50.294Z,100034.67
2017-11-19T04:37:19.523Z,100030.39
2017-11-19T04:39:48.830Z,100023.22
2017-11-19T04:42:18.015Z,100018.12
2017-11-19T04:44:47.301Z,100023.26
2017-11-19T04:47:17.234Z,100025.17
2017-11-19T04:49:46.410Z,100028.00
2017-11-19T04:52:15.684Z,100029.21
2017-11-19T04:54:45.045Z,100034.44
2017-11-19T04:57:15.736Z,100037.23
2017-11-19T04:59:44.966Z,100041.72
2017-11-19T05:02:14.147Z,100040.42
2017-11-19T05:04:43.339Z,100044.41
2017-11-19T05:07:12.549Z,100045.86
2017-11-19T05:09:41.724Z,100040.23
2017-11-19T05:12:10.891Z,100046.55
2017-11-19T05:14:41.006Z,100050.40
2017-11-19T05:17:11.020Z,100042.33
2017-11-19T05:19:40.984Z,100053.03
2017-11-19T05:22:10.183Z,100050.16
2017-11-19T05:24:39.384Z,100046.16
2017-11-19T05:27:08.558Z,100051.09
2017-11-19T05:29:37.748Z,100058.22
2017-11-19T05:32:07.015Z,100062.72
2017-11-19T05:34:36.982Z,100065.10
2017-11-19T05:37:06.157Z,100071.80
2017-11-19T05:39:35.333Z,100076.77
2017-11-19T05:42:05.303Z,100072.38
2017-11-19T05:44:34.492Z,100079.21
2017-11-19T05:47:03.686Z,100068.45
2017-11-19T05:49:32.938Z,100065.84
2017-11-19T05:52:03.030Z,100071.14
2017-11-19T05:54:32.209Z,100082.25
2017-11-19T05:57:01.411Z,100081.07
2017-11-19T05:59:30.601Z,100087.24
2017-11-19T06:01:59.799Z,100082.56
2017-11-19T06:04:29.098Z,100080.75
2017-11-19T06:06:58.299Z,100089.34
2017-11-19T06:09:27.539Z,100083.80
2017-11-19T06:11:56.751Z,100092.18
2017-11-19T06:14:25.925Z,100090.83
2017-11-19T06:16:55.878Z,100097.16
2017-11-19T06:19:25.517Z,100095.63
2017-11-19T06:21:54.702Z,100100.22
2017-11-19T06:24:23.875Z,100103.56
2017-11-19T06:26:53.090Z,100104.95
2017-11-19T06:29:22.271Z,100097.72
2017-11-19T06:31:51.479Z,100101.60
2017-11-19T06:34:20.698Z,100100.95
2017-11-19T06:36:49.861Z,100096.52
2017-11-19T06:39:19.193Z,100101.99
2017-11-19T06:41:48.346Z,100104.00
2017-11-19T06:44:18.298Z,100101.30
2017-11-19T06:46:48.308Z,100104.20
2017-11-19T06:49:17.526Z,100100.59
2017-11-19T06:51:46.692Z,100096.91
2017-11-19T06:54:15.822Z,100102.15
2017-11-19T06:56:45.016Z,100102.64
2017-11-19T06:59:14.189Z,100101.16
2017-11-19T07:01:43.386Z,100100.09
2017-11-19T07:04:12.570Z,100105.09
2017-11-19T07:06:41.768Z,100113.47
2017-11-19T07:09:10.935Z,100114.85
2017-11-19T07:11:40.927Z,100116.45
2017-11-19T07:14:10.873Z,100117.95
2017-11-19T07:16:40.816Z,100122.97
2017-11-19T07:19:09.995Z,100119.38
2017-11-19T07:21:39.211Z,100125.48
2017-11-19T07:24:08.424Z,100128.66
2017-11-19T07:26:37.628Z,100132.76
2017-11-19T07:29:06.792Z,100132.35
2017-11-19T07:31:35.991Z,100122.94
2017-11-19T07:34:05.152Z,100130.65
2017-11-19T07:36:35.148Z,100133.59
2017-11-19T07:39:04.322Z,100138.80
2017-11-19T07:41:33.648Z,100136.69
2017-11-19T07:44:02.958Z,100134.50
2017-11-19T07:46:32.126Z,100139.15
2017-11-19T07:49:01.323Z,100139.13
2017-11-19T07:51:30.526Z,100140.62
2017-11-19T07:53:59.700Z,100142.07
2017-11-19T07:56:28.871Z,100139.78
2017-11-19T07:58:58.174Z,100138.94
2017-11-19T08:01:27.340Z,100135.34
2017-11-19T08:03:56.522Z,100142.17
2017-11-19T08:06:25.693Z,100143.52
2017-11-19T08:08:54.953Z,100153.30
2017-11-19T08:11:25.093Z,100152.72
2017-11-19T08:13:54.300Z,100149.07
2017-11-19T08:16:23.473Z,100156.60
2017-11-19T08:18:52.690Z,100159.50
2017-11-19T08:21:22.606Z,100158.50
2017-11-19T08:23:51.780Z,100151.08
2017-11-19T08:26:20.967Z,100158.32
2017-11-19T08:28:50.165Z,100157.84
2017-11-19T08:31:20.171Z,100162.36
2017-11-19T08:33:50.088Z,100170.41
2017-11-19T08:36:19.296Z,100170.56
2017-11-19T08:38:49.230Z,100171.49
2017-11-19T08:41:18.410Z,100178.48
2017-11-19T08:43:47.601Z,100173.89
2017-11-19T08:46:16.990Z,100173.44
2017-11-19T08:48:47.013Z,100170.74
2017-11-19T08:51:16.988Z,100178.34
2017-11-19T08:53:46.211Z,100166.95
2017-11-19T08:56:15.393Z,100167.45
2017-11-19T08:58:44.573Z,100176.89
2017-11-19T09:01:13.744Z,100189.55
2017-11-19T09:03:42.944Z,100184.84
2017-11-19T09:06:12.146Z,100180.91
2017-11-19T09:08:41.310Z,100176.91
2017-11-19T09:11:11.405Z,100183.10
2017-11-19T09:13:42.190Z,100174.89
2017-11-19T09:16:11.391Z,100187.61
2017-11-19T09:18:40.567Z,100184.88
2017-11-19T09:21:09.743Z,100186.22
2017-11-19T09:23:39.716Z,100195.59
2017-11-19T09:26:09.006Z,100198.69
2017-11-19T09:28:38.198Z,100202.14
2017-11-19T09:31:08.383Z,100192.69
2017-11-19T09:33:38.441Z,100202.58
2017-11-19T09:36:07.615Z,100202.01
2017-11-19T09:38:36.787Z,100198.66
2017-11-19T09:41:06.140Z,100201.67
2017-11-19T09:43:35.343Z,100205.05
2017-11-19T09:46:04.550Z,100203.55
2017-11-19T09:48:33.723Z,100205.78
2017-11-19T09:51:02.903Z,100204.71
2017-11-19T09:53:32.088Z,100207.33
2017-11-19T09:56:01.302Z,100213.60
2017-11-19T09:58:30.481Z,100216.82
2017-11-19T10:01:00.426Z,100217.22
2017-11-19T10:03:29.590Z,100222.50
2017-11-19T10:05:58.964Z,100225.08
2017-11-19T10:08:28.124Z,100226.73
2017-11-19T10:10:57.431Z,100223.55
2017-11-19T10:13:26.643Z,100221.78
2017-11-19T10:15:55.818Z,100214.33
2017-11-19T10:18:25.022Z,100217.27
2017-11-19T10:20:54.347Z,100223.47
2017-11-19T10:23:23.533Z,100213.24
2017-11-19T10:25:52.801Z,100220.63
2017-11-19T10:28:22.714Z,100216.87
2017-11-19T10:30:51.881Z,100211.77
2017-11-19T10:33:21.308Z,100209.87
2017-11-19T10:35:50.437Z,100208.92
2017-11-19T10:38:19.633Z,100210.30
2017-11-19T10:40:49.027Z,100211.62
2017-11-19T10:43:18.263Z,100200.75
2017-11-19T10:45:48.325Z,100210.55
2017-11-19T10:48:17.524Z,100224.56
2017-11-19T10:50:46.846Z,100220.39
2017-11-19T10:53:16.057Z,100225.28
2017-11-19T10:55:45.296Z,100213.86
2017-11-19T10:58:14.482Z,100213.56
2017-11-19T11:00:44.429Z,100211.27
2017-11-19T11:03:13.794Z,100223.12
2017-11-19T11:05:43.123Z,100230.23
2017-11-19T11:08:12.306Z,100238.11
2017-11-19T11:10:41.498Z,100226.19
2017-11-19T11:13:11.439Z,100235.16
2017-11-19T11:15:40.799Z,100235.34
2017-11-19T11:18:10.766Z,100237.41
2017-11-19T11:20:39.952Z,100231.05
2017-11-19T11:23:09.121Z,100231.50
2017-11-19T11:25:38.330Z,100234.08
2017-11-19T11:28:07.542Z,100229.88
2017-11-19T11:30:36.710Z,100241.70
2017-11-19T11:33:06.670Z,100249.72
2017-11-19T11:35:35.917Z,100233.66
2017-11-19T11:38:05.844Z,100234.01
2017-11-19T11:40:35.113Z,100228.51
2017-11-19T11:43:05.829Z,100235.91
2017-11-19T11:45:35.920Z,100234.25
2017-11-19T11:48:05.151Z,100237.84
2017-11-19T11:50:34.329Z,100221.10
2017-11-19T11:53:03.559Z,100228.29
2017-11-19T11:55:32.813Z,100230.26
2017-11-19T11:58:01.985Z,100233.30
2017-11-19T12:00:31.187Z,100222.88
2017-11-19T12:03:01.165Z,100232.71
2017-11-19T12:05:31.252Z,100231.36
2017-11-19T12:08:00.463Z,100230.89
2017-11-19T12:10:29.684Z,100225.64
2017-11-19T12:12:59.641Z,100233.69
2017-11-19T12:15:29.169Z,100232.70
2017-11-19T12:17:58.399Z,100229.93
2017-11-19T12:20:27.789Z,100230.80
2017-11-19T12:22:56.998Z,100223.48
2017-11-19T12:25:26.163Z,100227.73
2017-11-19T12:27:55.430Z,100238.66
2017-11-19T12:30:24.671Z,100232.08
2017-11-19T12:32:53.872Z,100231.47
2017-11-19T12:35:23.009Z,100242.96
2017-11-19T12:37:52.270Z,100236.05
2017-11-19T12:40:21.469Z,100235.88
2017-11-19T12:42:50.639Z,100247.61
2017-11-19T12:45:19.832Z,100239.78
2017-11-19T12:47:48.981Z,100244.33
2017-11-19T12:50:18.323Z,100246.48
2017-11-19T12:52:47.553Z,100249.24
2017-11-19T12:55:16.770Z,100240.39
2017-11-19T12:57:47.102Z,100249.91
2017-11-19T13:00:16.338Z,100247.98
2017-11-19T13:02:45.550Z,100246.43
2017-11-19T13:05:14.764Z,100237.48
2017-11-19T13:07:43.981Z,100238.05
2017-11-19T13:10:14.071Z,100242.75
2017-11-19T13:12:43.252Z,100244.74
2017-11-19T13:15:12.529Z,100238.78
2017-11-19T13:17:42.518Z,100234.17
2017-11-19T13:20:12.481Z,100227.05
2017-11-19T13:22:41.675Z,100218.61
2017-11-19T13:25:11.671Z,100208.02
2017-11-19T13:27:40.893Z,100212.08
2017-11-19T13:30:10.082Z,100224.70
2017-11-19T13:32:39.398Z,100227.66
2017-11-19T13:48:09.523Z,100240.47
2017-11-19T13:50:38.707Z,100246.26
2017-11-19T13:53:07.961Z,100248.73
2017-11-19T13:55:37.924Z,100249.30
2017-11-19T13:58:07.236Z,100246.83
2017-11-19T14:00:36.529Z,100249.37
2017-11-19T14:03:06.556Z,100248.86
2017-11-19T14:05:35.829Z,100258.89
2017-11-19T14:08:05.024Z,100256.73
2017-11-19T14:10:34.237Z,100269.73
2017-11-19T14:13:03.466Z,100266.61
2017-11-19T14:15:32.686Z,100271.55
2017-11-19T14:18:01.942Z,100272.67
2017-11-19T14:20:31.137Z,100268.02
2017-11-19T14:23:01.229Z,100274.08
2017-11-19T14:25:30.446Z,100273.52
2017-11-19T14:27:59.759Z,100274.12
2017-11-19T14:30:28.959Z,100272.95
2017-11-19T14:32:58.168Z,100278.65
2017-11-19T14:35:28.165Z,100290.11
2017-11-19T14:37:57.422Z,100287.41
2017-11-19T14:40:26.634Z,100277.14
2017-11-19T14:42:55.872Z,100276.50
2017-11-19T14:45:25.963Z,100275.14
2017-11-19T14:47:55.319Z,100279.36
2017-11-19T14:50:24.528Z,100276.41
2017-11-19T14:52:53.751Z,100285.84
2017-11-19T14:55:22.946Z,100287.22
2017-11-19T14:57:52.161Z,100288.72
2017-11-19T15:00:21.410Z,100289.02
2017-11-19T15:02:51.741Z,100282.88
2017-11-19T15:05:20.926Z,100286.31
2017-11-19T15:07:50.213Z,100295.21
2017-11-19T15:10:20.193Z,100291.81
2017-11-19T15:12:49.503Z,100304.49
2017-11-19T15:15:18.700Z,100300.02
2017-11-19T15:17:48.881Z,100303.83
2017-11-19T15:20:18.151Z,100301.67
2017-11-19T15:22:47.373Z,100307.61
2017-11-19T15:25:16.753Z,100306.94
2017-11-19T15:27:45.952Z,100311.95
2017-11-19T15:30:15.156Z,100310.73
2017-11-19T15:32:44.382Z,100313.16
2017-11-19T15:35:13.681Z,100323.19
2017-11-19T15:37:42.906Z,100323.81
2017-11-19T15:40:12.189Z,100334.08
2017-11-19T15:42:41.420Z,100332.81
2017-11-19T15:45:11.584Z,100338.69
2017-11-19T15:47:40.796Z,100334.78
2017-11-19T15:50:10.081Z,100334.41
2017-11-19T15:52:39.341Z,100331.16
2017-11-19T15:55:09.373Z,100333.42
2017-11-19T15:57:38.633Z,100335.73
2017-11-19T16:00:07.889Z,100330.34
2017-11-19T16:02:37.161Z,100338.92
2017-11-19T16:05:06.397Z,100333.05
2017-11-19T16:07:35.606Z,100341.31
2017-11-19T16:10:04.882Z,100343.62
2017-11-19T16:12:34.129Z,100352.77
2017-11-19T16:15:03.360Z,100350.59
2017-11-19T16:17:32.559Z,100361.97
2017-11-19T16:20:01.875Z,100358.95
2017-11-19T16:22:31.158Z,100365.77
2017-11-19T16:25:00.408Z,100367.77
2017-11-19T16:27:29.667Z,100365.65
2017-11-19T16:29:58.962Z,100364.69
2017-11-19T16:32:28.221Z,100371.03
2017-11-19T16:34:59.981Z,100372.73
2017-11-19T16:37:29.241Z,100379.10
2017-11-19T16:39:58.573Z,100368.77
2017-11-19T16:42:28.551Z,100383.26
2017-11-19T16:44:57.853Z,100378.36
2017-11-19T16:47:27.083Z,100379.70
2017-11-19T16:49:56.358Z,100375.48
2017-11-19T16:52:25.584Z,100381.20
2017-11-19T16:54:55.549Z,100379.75
2017-11-19T16:57:24.876Z,100385.08
2017-11-19T16:59:54.174Z,100385.59
2017-11-19T17:02:23.397Z,100398.70
2017-11-19T17:04:53.458Z,100397.59
2017-11-19T17:07:22.755Z,100405.15
2017-11-19T17:09:51.987Z,100418.30
2017-11-19T17:12:21.253Z,100423.07
2017-11-19T17:14:50.584Z,100416.36
2017-11-19T17:17:19.868Z,100421.58
2017-11-19T17:19:49.410Z,100421.03
2017-11-19T17:22:20.124Z,100430.94
2017-11-19T17:24:49.534Z,100431.73
2017-11-19T17:27:18.729Z,100428.49
2017-11-19T17:29:47.954Z,100443.94
2017-11-19T17:32:17.149Z,100446.48
2017-11-19T17:34:46.392Z,100446.18
2017-11-19T17:37:15.747Z,100451.53
2017-11-19T17:39:49.127Z,100443.44
2017-11-19T17:42:20.383Z,100445.52
2017-11-19T17:44:49.653Z,100432.73
2017-11-19T17:47:18.909Z,100449.78
2017-11-19T17:49:48.178Z,100444.13
2017-11-19T17:52:18.340Z,100450.75
2017-11-19T17:54:48.006Z,100443.79
2017-11-19T17:57:17.454Z,100442.34
2017-11-19T17:59:46.742Z,100443.78
2017-11-19T18:02:16.097Z,100458.00
2017-11-19T18:04:46.785Z,100452.33
2017-11-19T18:07:16.400Z,100460.24
2017-11-19T18:09:45.708Z,100451.74
2017-11-19T18:12:14.888Z,100465.97
2017-11-19T18:14:44.405Z,100467.28
2017-11-19T18:17:13.683Z,100476.59
2017-11-19T18:19:42.989Z,100483.53
2017-11-19T18:22:13.001Z,100483.22
2017-11-19T18:24:42.218Z,100486.50
2017-11-19T18:27:11.795Z,100486.80
2017-11-19T18:29:41.620Z,100492.49
2017-11-19T18:32:10.905Z,100490.38
2017-11-19T18:34:40.189Z,100496.84
2017-11-19T18:37:10.571Z,100494.22
2017-11-19T18:39:39.941Z,100491.02
2017-11-19T18:42:10.605Z,100497.54
2017-11-19T18:44:40.179Z,100494.19
2017-11-19T18:47:09.790Z,100497.00
2017-11-19T18:49:39.753Z,100497.28
2017-11-19T18:52:09.046Z,100497.00
2017-11-19T18:54:38.263Z,100505.67
2017-11-19T18:57:07.911Z,100509.75
2017-11-19T18:59:37.243Z,100512.34
2017-11-19T19:02:06.527Z,100505.41
2017-11-19T19:04:36.140Z,100507.56
2017-11-19T19:07:05.753Z,100515.88
2017-11-19T19:09:35.064Z,100514.09
2017-11-19T19:12:04.792Z,100511.31
2017-11-19T19:14:34.066Z,100513.72
2017-11-19T19:17:03.727Z,100509.08
2017-11-19T19:19:33.133Z,100516.96
2017-11-19T19:22:02.649Z,100514.13
2017-11-19T19:24:31.822Z,100508.58
2017-11-19T19:27:01.023Z,100519.52
2017-11-19T19:29:30.297Z,100525.06
2017-11-19T19:31:59.566Z,100529.58
2017-11-19T19:34:29.105Z,100529.52
2017-11-19T19:36:59.083Z,100528.41
2017-11-19T19:39:28.337Z,100529.36
2017-11-19T19:41:58.442Z,100541.69
2017-11-19T19:44:28.584Z,100542.09
2017-11-19T19:46:57.960Z,100535.64
2017-11-19T19:49:27.908Z,100549.67
2017-11-19T19:51:57.125Z,100552.95
2017-11-19T19:54:26.647Z,100552.16
2017-11-19T19:56:55.833Z,100551.48
2017-11-19T19:59:25.388Z,100558.89
2017-11-19T20:01:54.596Z,100562.28
2017-11-19T20:04:23.860Z,100565.81
2017-11-19T20:06:53.174Z,100565.78
2017-11-19T20:09:23.106Z,100566.44
2017-11-19T20:11:52.306Z,100572.24
2017-11-19T20:14:21.628Z,100575.37
2017-11-19T20:16:51.061Z,100582.30
2017-11-19T20:19:20.290Z,100580.69
2017-11-19T20:21:50.092Z,100580.25
2017-11-19T20:24:20.120Z,100587.17
2017-11-19T20:26:49.389Z,100592.10
2017-11-19T20:29:18.694Z,100604.42
2017-11-19T20:31:48.174Z,100601.34
2017-11-19T20:34:17.448Z,100602.58
2017-11-19T20:36:46.759Z,100610.67
2017-11-19T20:39:15.956Z,100609.58
2017-11-19T20:41:45.532Z,100611.77
2017-11-19T20:44:14.809Z,100609.64
2017-11-19T20:46:44.793Z,100620.14
2017-11-19T20:49:13.984Z,100623.64
2017-11-19T20:51:43.189Z,100622.03
2017-11-19T20:54:12.461Z,100625.02
2017-11-19T20:56:41.733Z,100625.12
2017-11-19T20:59:11.700Z,100619.34
2017-11-19T21:01:40.976Z,100626.08
2017-11-19T21:04:10.238Z,100626.51
2017-11-19T21:06:39.458Z,100626.28
2017-11-19T21:09:09.418Z,100627.80
2017-11-19T21:11:38.620Z,100621.05
2017-11-19T21:14:07.879Z,100625.64
2017-11-19T21:16:37.793Z,100624.17
2017-11-19T21:19:07.074Z,100624.45
2017-11-19T21:21:36.269Z,100625.29
2017-11-19T21:24:05.514Z,100630.27
2017-11-19T21:26:34.698Z,100627.34
2017-11-19T21:29:03.832Z,100626.11
2017-11-19T21:31:33.785Z,100638.13
2017-11-19T21:34:03.064Z,100637.99
2017-11-19T21:36:33.059Z,100634.63
2017-11-19T21:39:02.327Z,100639.25
2017-11-19T21:41:31.560Z,100641.94
2017-11-19T21:44:00.805Z,100651.89
2017-11-19T21:46:30.061Z,100650.02
2017-11-19T21:49:00.028Z,100653.91
2017-11-19T21:51:29.328Z,100653.68
2017-11-19T21:53:58.523Z,100657.72
2017-11-19T21:56:27.860Z,100652.88
2017-11-19T21:58:57.094Z,100656.80
2017-11-19T22:01:26.278Z,100657.86
2017-11-19T22:03:56.277Z,100654.50
2017-11-19T22:06:25.518Z,100647.37
2017-11-19T22:08:54.829Z,100646.83
2017-11-19T22:11:24.001Z,100649.36
2017-11-19T22:13:53.246Z,100641.14
2017-11-19T22:16:22.475Z,100644.08
2017-11-19T22:18:52.451Z,100649.63
2017-11-19T22:21:21.683Z,100649.33
2017-11-19T22:23:50.926Z,100648.25
2017-11-19T22:26:20.132Z,100648.00
2017-11-19T22:28:49.374Z,100651.74
2017-11-19T22:31:18.574Z,100653.48
2017-11-19T22:33:47.792Z,100654.97
2017-11-19T22:36:17.007Z,100661.30
2017-11-19T22:38:46.215Z,100660.45
2017-11-19T22:41:15.442Z,100656.69
2017-11-19T22:43:46.156Z,100658.94
2017-11-19T22:46:15.351Z,100660.15
2017-11-19T22:48:44.574Z,100648.13
2017-11-19T22:51:15.283Z,100648.91
2017-11-19T22:53:44.460Z,100644.18
2017-11-19T22:56:13.722Z,100648.20
2017-11-19T22:58:43.684Z,100647.25
2017-11-19T23:01:12.840Z,100634.72
2017-11-19T23:03:42.083Z,100640.22
2017-11-19T23:06:11.286Z,100641.41
2017-11-19T23:08:40.482Z,100643.41
2017-11-19T23:11:10.471Z,100639.88
2017-11-19T23:13:39.660Z,100643.38
2017-11-19T23:16:08.874Z,100637.30
2017-11-19T23:18:38.082Z,100641.89
2017-11-19T23:21:07.277Z,100627.34
2017-11-19T23:23:36.452Z,100629.23
2017-11-19T23:26:05.654Z,100628.29
2017-11-19T23:28:34.837Z,100634.34
2017-11-19T23:31:04.970Z,100634.77
2017-11-19T23:33:34.185Z,100644.10
2017-11-19T23:36:03.405Z,100642.23
2017-11-19T23:38:32.589Z,100631.94
2017-11-19T23:41:01.810Z,100642.30
2017-11-19T23:43:32.498Z,100645.25
2017-11-19T23:46:01.706Z,100635.81
2017-11-19T23:48:30.913Z,100634.86
2017-11-19T23:51:00.103Z,100639.02
2017-11-19T23:53:29.280Z,100631.59
2017-11-19T23:55:58.451Z,100631.55
2017-11-19T23:58:28.536Z,100622.52
